sensor_id;sensor_type;location;lat;lon;timestamp;temperature;humidity
4107;DHT22;21906;50.812;7.132;2022-08-05T00:00:19;24.20;75.50
4107;DHT22;21906;50.812;7.132;2022-08-05T00:02:45;24.20;75.30
4107;DHT22;21906;50.812;7.132;2022-08-05T00:05:11;24.10;75.80
4107;DHT22;21906;50.812;7.132;2022-08-05T00:07:37;24.10;75.80
4107;DHT22;21906;50.812;7.132;2022-08-05T00:10:03;24.10;75.90
4107;DHT22;21906;50.812;7.132;2022-08-05T00:12:28;24.10;75.80
4107;DHT22;21906;50.812;7.132;2022-08-05T00:14:54;24.00;75.80
4107;DHT22;21906;50.812;7.132;2022-08-05T00:17:20;23.90;75.90
4107;DHT22;21906;50.812;7.132;2022-08-05T00:19:46;23.90;76.10
4107;DHT22;21906;50.812;7.132;2022-08-05T00:22:11;23.90;76.40
4107;DHT22;21906;50.812;7.132;2022-08-05T00:24:38;23.90;76.30
4107;DHT22;21906;50.812;7.132;2022-08-05T00:27:04;23.80;76.40
4107;DHT22;21906;50.812;7.132;2022-08-05T00:29:29;23.80;76.60
4107;DHT22;21906;50.812;7.132;2022-08-05T00:31:55;23.70;76.80
4107;DHT22;21906;50.812;7.132;2022-08-05T00:34:21;23.70;76.90
4107;DHT22;21906;50.812;7.132;2022-08-05T00:36:46;23.70;76.80
4107;DHT22;21906;50.812;7.132;2022-08-05T00:39:12;23.70;76.90
4107;DHT22;21906;50.812;7.132;2022-08-05T00:41:38;23.70;77.10
4107;DHT22;21906;50.812;7.132;2022-08-05T00:44:04;23.70;77.20
4107;DHT22;21906;50.812;7.132;2022-08-05T00:46:30;23.70;77.40
4107;DHT22;21906;50.812;7.132;2022-08-05T00:48:55;23.60;77.60
4107;DHT22;21906;50.812;7.132;2022-08-05T00:51:22;23.60;77.70
4107;DHT22;21906;50.812;7.132;2022-08-05T00:53:48;23.60;77.70
4107;DHT22;21906;50.812;7.132;2022-08-05T00:56:15;23.50;77.90
4107;DHT22;21906;50.812;7.132;2022-08-05T00:58:41;23.50;78.10
4107;DHT22;21906;50.812;7.132;2022-08-05T01:01:08;23.50;78.00
4107;DHT22;21906;50.812;7.132;2022-08-05T01:03:35;23.50;78.00
4107;DHT22;21906;50.812;7.132;2022-08-05T01:06:01;23.60;77.80
4107;DHT22;21906;50.812;7.132;2022-08-05T01:08:26;23.50;77.80
4107;DHT22;21906;50.812;7.132;2022-08-05T01:11:32;23.50;78.00
4107;DHT22;21906;50.812;7.132;2022-08-05T01:14:01;23.50;78.00
4107;DHT22;21906;50.812;7.132;2022-08-05T01:19:40;23.40;78.30
4107;DHT22;21906;50.812;7.132;2022-08-05T01:22:17;23.40;78.50
4107;DHT22;21906;50.812;7.132;2022-08-05T01:33:36;23.30;78.40
4107;DHT22;21906;50.812;7.132;2022-08-05T01:36:08;23.20;78.10
4107;DHT22;21906;50.812;7.132;2022-08-05T01:38:36;23.10;78.60
4107;DHT22;21906;50.812;7.132;2022-08-05T01:41:04;23.20;78.40
4107;DHT22;21906;50.812;7.132;2022-08-05T01:43:32;23.20;78.20
4107;DHT22;21906;50.812;7.132;2022-08-05T01:46:00;23.20;78.10
4107;DHT22;21906;50.812;7.132;2022-08-05T01:48:26;23.10;78.10
4107;DHT22;21906;50.812;7.132;2022-08-05T01:50:55;23.10;78.10
4107;DHT22;21906;50.812;7.132;2022-08-05T01:53:22;23.10;78.20
4107;DHT22;21906;50.812;7.132;2022-08-05T01:55:50;23.00;78.30
4107;DHT22;21906;50.812;7.132;2022-08-05T01:58:17;22.90;78.30
4107;DHT22;21906;50.812;7.132;2022-08-05T02:00:48;22.90;78.50
4107;DHT22;21906;50.812;7.132;2022-08-05T02:05:40;22.90;78.50
4107;DHT22;21906;50.812;7.132;2022-08-05T02:08:07;22.90;78.30
4107;DHT22;21906;50.812;7.132;2022-08-05T02:10:43;22.90;78.60
4107;DHT22;21906;50.812;7.132;2022-08-05T02:13:24;22.80;78.70
4107;DHT22;21906;50.812;7.132;2022-08-05T02:16:01;22.80;78.80
4107;DHT22;21906;50.812;7.132;2022-08-05T02:18:36;22.70;78.90
4107;DHT22;21906;50.812;7.132;2022-08-05T02:21:17;22.70;78.70
4107;DHT22;21906;50.812;7.132;2022-08-05T02:23:47;22.60;78.60
4107;DHT22;21906;50.812;7.132;2022-08-05T02:26:19;22.50;78.00
4107;DHT22;21906;50.812;7.132;2022-08-05T02:28:46;22.30;78.20
4107;DHT22;21906;50.812;7.132;2022-08-05T02:31:20;22.30;77.20
4107;DHT22;21906;50.812;7.132;2022-08-05T02:33:50;22.20;76.80
4107;DHT22;21906;50.812;7.132;2022-08-05T02:36:19;22.10;76.00
4107;DHT22;21906;50.812;7.132;2022-08-05T02:38:48;22.00;75.50
4107;DHT22;21906;50.812;7.132;2022-08-05T02:41:15;21.80;75.70
4107;DHT22;21906;50.812;7.132;2022-08-05T02:43:43;21.80;75.70
4107;DHT22;21906;50.812;7.132;2022-08-05T02:46:13;21.70;75.60
4107;DHT22;21906;50.812;7.132;2022-08-05T02:48:40;21.50;76.30
4107;DHT22;21906;50.812;7.132;2022-08-05T02:51:07;21.50;76.60
4107;DHT22;21906;50.812;7.132;2022-08-05T02:53:33;21.40;76.80
4107;DHT22;21906;50.812;7.132;2022-08-05T02:56:00;21.50;76.60
4107;DHT22;21906;50.812;7.132;2022-08-05T02:58:27;21.60;76.40
4107;DHT22;21906;50.812;7.132;2022-08-05T03:00:55;21.50;76.60
4107;DHT22;21906;50.812;7.132;2022-08-05T03:03:21;21.50;76.30
4107;DHT22;21906;50.812;7.132;2022-08-05T03:05:48;21.40;76.40
4107;DHT22;21906;50.812;7.132;2022-08-05T03:08:14;21.40;76.40
4107;DHT22;21906;50.812;7.132;2022-08-05T03:10:42;21.50;76.30
4107;DHT22;21906;50.812;7.132;2022-08-05T03:13:13;21.50;76.70
4107;DHT22;21906;50.812;7.132;2022-08-05T03:15:46;21.50;76.80
4107;DHT22;21906;50.812;7.132;2022-08-05T03:18:12;21.60;76.80
4107;DHT22;21906;50.812;7.132;2022-08-05T03:20:38;21.50;76.80
4107;DHT22;21906;50.812;7.132;2022-08-05T03:23:06;21.50;76.80
4107;DHT22;21906;50.812;7.132;2022-08-05T03:25:34;21.50;76.80
4107;DHT22;21906;50.812;7.132;2022-08-05T03:28:01;21.60;76.80
4107;DHT22;21906;50.812;7.132;2022-08-05T03:30:29;21.70;77.20
4107;DHT22;21906;50.812;7.132;2022-08-05T03:32:57;21.70;76.80
4107;DHT22;21906;50.812;7.132;2022-08-05T03:35:25;21.70;76.90
4107;DHT22;21906;50.812;7.132;2022-08-05T03:37:52;21.70;77.00
4107;DHT22;21906;50.812;7.132;2022-08-05T03:40:18;21.70;77.00
4107;DHT22;21906;50.812;7.132;2022-08-05T03:42:44;21.60;77.50
4107;DHT22;21906;50.812;7.132;2022-08-05T03:45:09;21.40;78.10
4107;DHT22;21906;50.812;7.132;2022-08-05T03:47:35;21.40;78.00
4107;DHT22;21906;50.812;7.132;2022-08-05T03:50:01;21.40;78.00
4107;DHT22;21906;50.812;7.132;2022-08-05T03:52:33;21.30;78.60
4107;DHT22;21906;50.812;7.132;2022-08-05T03:55:06;21.20;78.70
4107;DHT22;21906;50.812;7.132;2022-08-05T03:57:37;21.40;78.70
4107;DHT22;21906;50.812;7.132;2022-08-05T04:00:07;21.40;78.70
4107;DHT22;21906;50.812;7.132;2022-08-05T04:02:35;21.40;78.90
4107;DHT22;21906;50.812;7.132;2022-08-05T04:05:03;21.50;78.40
4107;DHT22;21906;50.812;7.132;2022-08-05T04:07:31;21.60;78.40
4107;DHT22;21906;50.812;7.132;2022-08-05T04:09:57;21.60;78.40
4107;DHT22;21906;50.812;7.132;2022-08-05T04:12:23;21.70;78.40
4107;DHT22;21906;50.812;7.132;2022-08-05T04:14:49;21.70;78.50
4107;DHT22;21906;50.812;7.132;2022-08-05T04:17:15;21.60;78.20
4107;DHT22;21906;50.812;7.132;2022-08-05T04:19:43;21.60;78.20
4107;DHT22;21906;50.812;7.132;2022-08-05T04:22:09;21.60;78.30
4107;DHT22;21906;50.812;7.132;2022-08-05T04:24:39;21.70;78.10
4107;DHT22;21906;50.812;7.132;2022-08-05T04:27:05;21.60;78.20
4107;DHT22;21906;50.812;7.132;2022-08-05T04:29:30;21.70;78.00
4107;DHT22;21906;50.812;7.132;2022-08-05T04:31:59;21.70;78.00
4107;DHT22;21906;50.812;7.132;2022-08-05T04:34:28;21.70;78.30
4107;DHT22;21906;50.812;7.132;2022-08-05T04:36:58;21.60;78.70
4107;DHT22;21906;50.812;7.132;2022-08-05T04:39:26;21.40;79.60
4107;DHT22;21906;50.812;7.132;2022-08-05T04:41:51;21.30;79.80
4107;DHT22;21906;50.812;7.132;2022-08-05T04:44:18;21.40;79.60
4107;DHT22;21906;50.812;7.132;2022-08-05T04:46:44;21.40;79.40
4107;DHT22;21906;50.812;7.132;2022-08-05T04:49:10;21.50;79.10
4107;DHT22;21906;50.812;7.132;2022-08-05T04:51:35;21.50;78.90
4107;DHT22;21906;50.812;7.132;2022-08-05T04:54:01;21.50;78.80
4107;DHT22;21906;50.812;7.132;2022-08-05T04:56:26;21.50;78.90
4107;DHT22;21906;50.812;7.132;2022-08-05T04:58:52;21.60;78.90
4107;DHT22;21906;50.812;7.132;2022-08-05T05:01:18;21.70;78.80
4107;DHT22;21906;50.812;7.132;2022-08-05T05:03:43;21.70;78.70
4107;DHT22;21906;50.812;7.132;2022-08-05T05:06:10;21.50;79.40
4107;DHT22;21906;50.812;7.132;2022-08-05T05:08:37;21.60;79.20
4107;DHT22;21906;50.812;7.132;2022-08-05T05:11:04;21.60;79.30
4107;DHT22;21906;50.812;7.132;2022-08-05T05:13:30;21.40;80.20
4107;DHT22;21906;50.812;7.132;2022-08-05T05:15:55;21.50;80.00
4107;DHT22;21906;50.812;7.132;2022-08-05T05:18:21;21.50;79.70
4107;DHT22;21906;50.812;7.132;2022-08-05T05:20:47;21.40;80.10
4107;DHT22;21906;50.812;7.132;2022-08-05T05:23:13;21.30;80.50
4107;DHT22;21906;50.812;7.132;2022-08-05T05:25:40;21.30;80.80
4107;DHT22;21906;50.812;7.132;2022-08-05T05:28:06;21.30;81.00
4107;DHT22;21906;50.812;7.132;2022-08-05T05:30:31;21.30;80.90
4107;DHT22;21906;50.812;7.132;2022-08-05T05:32:58;21.40;80.90
4107;DHT22;21906;50.812;7.132;2022-08-05T05:35:24;21.40;80.50
4107;DHT22;21906;50.812;7.132;2022-08-05T05:37:54;21.50;80.10
4107;DHT22;21906;50.812;7.132;2022-08-05T05:40:21;21.50;80.00
4107;DHT22;21906;50.812;7.132;2022-08-05T05:42:48;21.50;79.60
4107;DHT22;21906;50.812;7.132;2022-08-05T05:45:14;21.50;79.70
4107;DHT22;21906;50.812;7.132;2022-08-05T05:47:40;21.50;79.90
4107;DHT22;21906;50.812;7.132;2022-08-05T05:50:14;21.50;80.00
4107;DHT22;21906;50.812;7.132;2022-08-05T05:52:41;21.50;79.60
4107;DHT22;21906;50.812;7.132;2022-08-05T05:55:09;21.60;79.00
4107;DHT22;21906;50.812;7.132;2022-08-05T05:57:36;21.60;79.00
4107;DHT22;21906;50.812;7.132;2022-08-05T06:00:03;21.60;79.10
4107;DHT22;21906;50.812;7.132;2022-08-05T06:02:29;21.50;79.70
4107;DHT22;21906;50.812;7.132;2022-08-05T06:04:55;21.60;79.90
4107;DHT22;21906;50.812;7.132;2022-08-05T06:07:21;21.70;79.60
4107;DHT22;21906;50.812;7.132;2022-08-05T06:09:46;21.70;79.80
4107;DHT22;21906;50.812;7.132;2022-08-05T06:12:12;21.80;79.50
4107;DHT22;21906;50.812;7.132;2022-08-05T06:14:38;21.70;79.60
4107;DHT22;21906;50.812;7.132;2022-08-05T06:17:04;21.80;79.50
4107;DHT22;21906;50.812;7.132;2022-08-05T06:19:29;22.00;79.30
4107;DHT22;21906;50.812;7.132;2022-08-05T06:21:55;22.10;78.90
4107;DHT22;21906;50.812;7.132;2022-08-05T06:24:20;22.20;78.10
4107;DHT22;21906;50.812;7.132;2022-08-05T06:26:46;22.20;78.10
4107;DHT22;21906;50.812;7.132;2022-08-05T06:29:13;22.30;77.30
4107;DHT22;21906;50.812;7.132;2022-08-05T06:31:39;22.20;77.50
4107;DHT22;21906;50.812;7.132;2022-08-05T06:34:06;22.20;78.00
4107;DHT22;21906;50.812;7.132;2022-08-05T06:36:33;22.20;77.80
4107;DHT22;21906;50.812;7.132;2022-08-05T06:38:58;22.20;78.10
4107;DHT22;21906;50.812;7.132;2022-08-05T06:41:24;22.30;78.60
4107;DHT22;21906;50.812;7.132;2022-08-05T06:43:49;22.40;78.00
4107;DHT22;21906;50.812;7.132;2022-08-05T06:46:15;22.20;77.20
4107;DHT22;21906;50.812;7.132;2022-08-05T06:48:41;22.20;77.60
4107;DHT22;21906;50.812;7.132;2022-08-05T06:51:06;22.20;78.30
4107;DHT22;21906;50.812;7.132;2022-08-05T06:53:32;22.10;78.40
4107;DHT22;21906;50.812;7.132;2022-08-05T06:56:00;22.00;78.60
4107;DHT22;21906;50.812;7.132;2022-08-05T06:58:28;22.00;78.90
4107;DHT22;21906;50.812;7.132;2022-08-05T07:00:54;22.00;78.30
4107;DHT22;21906;50.812;7.132;2022-08-05T07:03:19;22.00;78.20
4107;DHT22;21906;50.812;7.132;2022-08-05T07:05:45;22.00;77.90
4107;DHT22;21906;50.812;7.132;2022-08-05T07:08:10;21.90;78.10
4107;DHT22;21906;50.812;7.132;2022-08-05T07:10:37;21.90;78.60
4107;DHT22;21906;50.812;7.132;2022-08-05T07:13:03;21.70;79.00
4107;DHT22;21906;50.812;7.132;2022-08-05T07:15:47;21.70;79.40
4107;DHT22;21906;50.812;7.132;2022-08-05T07:18:31;21.70;79.30
4107;DHT22;21906;50.812;7.132;2022-08-05T07:20:57;21.60;79.60
4107;DHT22;21906;50.812;7.132;2022-08-05T07:23:22;21.70;79.40
4107;DHT22;21906;50.812;7.132;2022-08-05T07:25:48;21.80;79.20
4107;DHT22;21906;50.812;7.132;2022-08-05T07:28:14;21.80;79.30
4107;DHT22;21906;50.812;7.132;2022-08-05T07:30:39;21.70;79.10
4107;DHT22;21906;50.812;7.132;2022-08-05T07:33:09;21.60;79.90
4107;DHT22;21906;50.812;7.132;2022-08-05T07:35:35;21.60;79.60
4107;DHT22;21906;50.812;7.132;2022-08-05T07:38:01;21.60;79.70
4107;DHT22;21906;50.812;7.132;2022-08-05T07:40:27;21.70;79.50
4107;DHT22;21906;50.812;7.132;2022-08-05T07:42:52;21.60;79.60
4107;DHT22;21906;50.812;7.132;2022-08-05T07:45:18;21.70;79.70
4107;DHT22;21906;50.812;7.132;2022-08-05T07:47:45;21.70;79.60
4107;DHT22;21906;50.812;7.132;2022-08-05T07:50:10;21.70;79.40
4107;DHT22;21906;50.812;7.132;2022-08-05T07:52:40;21.80;78.80
4107;DHT22;21906;50.812;7.132;2022-08-05T07:55:08;21.90;77.90
4107;DHT22;21906;50.812;7.132;2022-08-05T07:57:34;21.90;77.80
4107;DHT22;21906;50.812;7.132;2022-08-05T08:00:00;22.10;77.30
4107;DHT22;21906;50.812;7.132;2022-08-05T08:02:27;22.20;77.20
4107;DHT22;21906;50.812;7.132;2022-08-05T08:04:54;22.30;75.70
4107;DHT22;21906;50.812;7.132;2022-08-05T08:07:20;22.20;76.00
4107;DHT22;21906;50.812;7.132;2022-08-05T08:09:47;22.10;76.10
4107;DHT22;21906;50.812;7.132;2022-08-05T08:12:13;22.10;76.70
4107;DHT22;21906;50.812;7.132;2022-08-05T08:14:40;22.10;76.70
4107;DHT22;21906;50.812;7.132;2022-08-05T08:17:06;22.10;77.40
4107;DHT22;21906;50.812;7.132;2022-08-05T08:19:38;22.20;76.50
4107;DHT22;21906;50.812;7.132;2022-08-05T08:22:05;22.20;76.30
4107;DHT22;21906;50.812;7.132;2022-08-05T08:24:31;22.00;76.90
4107;DHT22;21906;50.812;7.132;2022-08-05T08:26:57;21.90;77.30
4107;DHT22;21906;50.812;7.132;2022-08-05T08:29:23;21.90;77.30
4107;DHT22;21906;50.812;7.132;2022-08-05T08:31:49;21.80;77.30
4107;DHT22;21906;50.812;7.132;2022-08-05T08:34:19;21.80;77.60
4107;DHT22;21906;50.812;7.132;2022-08-05T08:36:45;21.80;77.60
4107;DHT22;21906;50.812;7.132;2022-08-05T08:39:10;21.70;78.40
4107;DHT22;21906;50.812;7.132;2022-08-05T08:41:37;21.60;78.50
4107;DHT22;21906;50.812;7.132;2022-08-05T08:44:06;21.40;79.30
4107;DHT22;21906;50.812;7.132;2022-08-05T08:46:33;21.50;79.60
4107;DHT22;21906;50.812;7.132;2022-08-05T08:49:02;21.60;79.10
4107;DHT22;21906;50.812;7.132;2022-08-05T08:51:31;21.70;78.50
4107;DHT22;21906;50.812;7.132;2022-08-05T08:53:58;21.60;79.00
4107;DHT22;21906;50.812;7.132;2022-08-05T08:56:24;21.60;78.70
4107;DHT22;21906;50.812;7.132;2022-08-05T08:58:50;21.70;78.80
4107;DHT22;21906;50.812;7.132;2022-08-05T09:01:17;21.80;78.70
4107;DHT22;21906;50.812;7.132;2022-08-05T09:03:45;21.90;78.80
4107;DHT22;21906;50.812;7.132;2022-08-05T09:06:11;21.90;78.70
4107;DHT22;21906;50.812;7.132;2022-08-05T09:08:37;22.10;78.20
4107;DHT22;21906;50.812;7.132;2022-08-05T09:11:02;22.10;77.90
4107;DHT22;21906;50.812;7.132;2022-08-05T09:13:28;22.20;77.70
4107;DHT22;21906;50.812;7.132;2022-08-05T09:15:54;22.30;77.30
4107;DHT22;21906;50.812;7.132;2022-08-05T09:18:20;22.30;76.80
4107;DHT22;21906;50.812;7.132;2022-08-05T09:20:46;22.10;77.00
4107;DHT22;21906;50.812;7.132;2022-08-05T09:23:16;22.20;76.40
4107;DHT22;21906;50.812;7.132;2022-08-05T09:25:44;21.90;77.10
4107;DHT22;21906;50.812;7.132;2022-08-05T09:28:21;22.00;77.00
4107;DHT22;21906;50.812;7.132;2022-08-05T09:30:57;22.10;76.70
4107;DHT22;21906;50.812;7.132;2022-08-05T09:33:25;21.90;76.80
4107;DHT22;21906;50.812;7.132;2022-08-05T09:36:03;21.90;76.80
4107;DHT22;21906;50.812;7.132;2022-08-05T09:38:30;21.90;76.30
4107;DHT22;21906;50.812;7.132;2022-08-05T09:41:07;21.90;76.20
4107;DHT22;21906;50.812;7.132;2022-08-05T09:43:36;21.90;76.10
4107;DHT22;21906;50.812;7.132;2022-08-05T09:46:03;21.90;76.20
4107;DHT22;21906;50.812;7.132;2022-08-05T09:48:32;22.30;76.00
4107;DHT22;21906;50.812;7.132;2022-08-05T09:51:01;22.10;75.30
4107;DHT22;21906;50.812;7.132;2022-08-05T09:53:28;22.20;75.40
4107;DHT22;21906;50.812;7.132;2022-08-05T09:55:58;22.40;75.20
4107;DHT22;21906;50.812;7.132;2022-08-05T09:58:25;22.30;74.30
4107;DHT22;21906;50.812;7.132;2022-08-05T10:01:11;22.20;74.70
4107;DHT22;21906;50.812;7.132;2022-08-05T10:03:38;22.00;74.70
4107;DHT22;21906;50.812;7.132;2022-08-05T10:06:06;21.90;74.50
4107;DHT22;21906;50.812;7.132;2022-08-05T10:08:33;21.90;74.50
4107;DHT22;21906;50.812;7.132;2022-08-05T10:11:12;21.90;74.10
4107;DHT22;21906;50.812;7.132;2022-08-05T10:13:38;21.80;75.10
4107;DHT22;21906;50.812;7.132;2022-08-05T10:16:05;21.90;74.70
4107;DHT22;21906;50.812;7.132;2022-08-05T10:18:32;21.80;74.50
4107;DHT22;21906;50.812;7.132;2022-08-05T10:21:00;21.70;73.40
4107;DHT22;21906;50.812;7.132;2022-08-05T10:23:33;21.60;74.60
4107;DHT22;21906;50.812;7.132;2022-08-05T10:26:04;21.30;75.30
4107;DHT22;21906;50.812;7.132;2022-08-05T10:28:30;21.20;76.10
4107;DHT22;21906;50.812;7.132;2022-08-05T10:30:58;21.20;76.00
4107;DHT22;21906;50.812;7.132;2022-08-05T10:33:26;21.10;76.60
4107;DHT22;21906;50.812;7.132;2022-08-05T10:35:53;21.10;76.60
4107;DHT22;21906;50.812;7.132;2022-08-05T10:38:21;20.80;76.20
4107;DHT22;21906;50.812;7.132;2022-08-05T10:44:07;20.70;76.80
4107;DHT22;21906;50.812;7.132;2022-08-05T10:46:15;20.70;76.80
4107;DHT22;21906;50.812;7.132;2022-08-05T10:48:43;20.80;76.70
4107;DHT22;21906;50.812;7.132;2022-08-05T10:51:20;20.90;75.40
4107;DHT22;21906;50.812;7.132;2022-08-05T10:53:57;20.90;74.80
4107;DHT22;21906;50.812;7.132;2022-08-05T10:56:30;20.90;75.30
4107;DHT22;21906;50.812;7.132;2022-08-05T10:59:05;20.90;74.90
4107;DHT22;21906;50.812;7.132;2022-08-05T11:01:39;20.90;75.50
4107;DHT22;21906;50.812;7.132;2022-08-05T11:04:20;20.60;76.00
4107;DHT22;21906;50.812;7.132;2022-08-05T11:15:16;20.40;75.70
4107;DHT22;21906;50.812;7.132;2022-08-05T11:17:44;20.40;75.00
4107;DHT22;21906;50.812;7.132;2022-08-05T11:20:46;20.60;74.70
4107;DHT22;21906;50.812;7.132;2022-08-05T11:36:04;20.90;74.10
4107;DHT22;21906;50.812;7.132;2022-08-05T11:44:05;21.30;72.50
4107;DHT22;21906;50.812;7.132;2022-08-05T11:46:42;21.40;71.40
4107;DHT22;21906;50.812;7.132;2022-08-05T11:49:11;21.40;69.50
4107;DHT22;21906;50.812;7.132;2022-08-05T11:51:42;21.30;69.90
4107;DHT22;21906;50.812;7.132;2022-08-05T11:54:29;21.30;70.20
4107;DHT22;21906;50.812;7.132;2022-08-05T11:56:57;21.40;68.90
4107;DHT22;21906;50.812;7.132;2022-08-05T11:59:28;21.40;69.30
4107;DHT22;21906;50.812;7.132;2022-08-05T12:01:57;21.80;68.40
4107;DHT22;21906;50.812;7.132;2022-08-05T12:04:25;22.10;66.80
4107;DHT22;21906;50.812;7.132;2022-08-05T12:06:51;22.50;65.80
4107;DHT22;21906;50.812;7.132;2022-08-05T12:09:20;22.80;64.10
4107;DHT22;21906;50.812;7.132;2022-08-05T12:11:48;22.90;62.30
4107;DHT22;21906;50.812;7.132;2022-08-05T12:14:13;22.90;62.50
4107;DHT22;21906;50.812;7.132;2022-08-05T12:16:41;23.00;61.70
4107;DHT22;21906;50.812;7.132;2022-08-05T12:19:08;22.90;61.90
4107;DHT22;21906;50.812;7.132;2022-08-05T12:21:50;22.80;61.30
4107;DHT22;21906;50.812;7.132;2022-08-05T12:24:19;22.80;62.50
4107;DHT22;21906;50.812;7.132;2022-08-05T12:26:50;22.90;63.10
4107;DHT22;21906;50.812;7.132;2022-08-05T12:31:52;23.60;58.60
4107;DHT22;21906;50.812;7.132;2022-08-05T12:34:20;23.60;59.50
4107;DHT22;21906;50.812;7.132;2022-08-05T12:36:47;23.40;60.70
4107;DHT22;21906;50.812;7.132;2022-08-05T12:39:14;23.60;59.30
4107;DHT22;21906;50.812;7.132;2022-08-05T12:41:41;23.60;60.00
4107;DHT22;21906;50.812;7.132;2022-08-05T12:44:09;23.80;60.50
4107;DHT22;21906;50.812;7.132;2022-08-05T12:46:37;24.10;58.00
4107;DHT22;21906;50.812;7.132;2022-08-05T12:49:07;24.40;59.80
4107;DHT22;21906;50.812;7.132;2022-08-05T12:52:02;24.70;57.40
4107;DHT22;21906;50.812;7.132;2022-08-05T12:54:30;24.80;55.40
4107;DHT22;21906;50.812;7.132;2022-08-05T12:56:58;24.90;54.20
4107;DHT22;21906;50.812;7.132;2022-08-05T12:59:27;24.80;54.50
4107;DHT22;21906;50.812;7.132;2022-08-05T13:01:56;25.00;54.70
4107;DHT22;21906;50.812;7.132;2022-08-05T13:04:31;24.90;51.60
4107;DHT22;21906;50.812;7.132;2022-08-05T13:07:02;24.90;52.20
4107;DHT22;21906;50.812;7.132;2022-08-05T13:09:29;25.00;52.70
4107;DHT22;21906;50.812;7.132;2022-08-05T13:12:07;25.20;51.70
4107;DHT22;21906;50.812;7.132;2022-08-05T13:14:38;25.40;52.00
4107;DHT22;21906;50.812;7.132;2022-08-05T13:17:30;25.40;50.60
4107;DHT22;21906;50.812;7.132;2022-08-05T13:22:39;25.40;51.50
4107;DHT22;21906;50.812;7.132;2022-08-05T13:25:07;25.80;51.40
4107;DHT22;21906;50.812;7.132;2022-08-05T13:27:35;25.90;52.70
4107;DHT22;21906;50.812;7.132;2022-08-05T13:30:02;25.90;51.10
4107;DHT22;21906;50.812;7.132;2022-08-05T13:32:29;25.80;50.80
4107;DHT22;21906;50.812;7.132;2022-08-05T13:34:55;25.60;49.30
4107;DHT22;21906;50.812;7.132;2022-08-05T13:37:21;25.60;51.40
4107;DHT22;21906;50.812;7.132;2022-08-05T13:39:51;25.40;50.90
4107;DHT22;21906;50.812;7.132;2022-08-05T13:42:21;25.40;50.60
4107;DHT22;21906;50.812;7.132;2022-08-05T13:44:50;25.30;50.90
4107;DHT22;21906;50.812;7.132;2022-08-05T13:47:16;25.30;51.00
4107;DHT22;21906;50.812;7.132;2022-08-05T13:49:42;25.10;51.00
4107;DHT22;21906;50.812;7.132;2022-08-05T13:52:27;25.10;51.50
4107;DHT22;21906;50.812;7.132;2022-08-05T13:54:56;25.20;51.20
4107;DHT22;21906;50.812;7.132;2022-08-05T13:57:23;25.20;51.90
4107;DHT22;21906;50.812;7.132;2022-08-05T13:59:49;25.50;50.80
4107;DHT22;21906;50.812;7.132;2022-08-05T14:02:15;25.80;51.00
4107;DHT22;21906;50.812;7.132;2022-08-05T14:04:43;26.20;50.80
4107;DHT22;21906;50.812;7.132;2022-08-05T14:07:39;26.30;48.70
4107;DHT22;21906;50.812;7.132;2022-08-05T14:10:08;26.40;49.50
4107;DHT22;21906;50.812;7.132;2022-08-05T14:12:34;26.40;48.10
4107;DHT22;21906;50.812;7.132;2022-08-05T14:15:00;26.50;48.70
4107;DHT22;21906;50.812;7.132;2022-08-05T14:17:26;26.60;47.80
4107;DHT22;21906;50.812;7.132;2022-08-05T14:19:52;26.80;47.70
4107;DHT22;21906;50.812;7.132;2022-08-05T14:22:19;26.70;47.50
4107;DHT22;21906;50.812;7.132;2022-08-05T14:24:45;26.80;47.70
4107;DHT22;21906;50.812;7.132;2022-08-05T14:27:11;26.90;46.70
4107;DHT22;21906;50.812;7.132;2022-08-05T14:29:37;27.00;47.40
4107;DHT22;21906;50.812;7.132;2022-08-05T14:32:03;27.40;46.30
4107;DHT22;21906;50.812;7.132;2022-08-05T14:34:28;27.40;45.80
4107;DHT22;21906;50.812;7.132;2022-08-05T14:36:54;27.30;45.30
4107;DHT22;21906;50.812;7.132;2022-08-05T14:39:20;26.90;45.10
4107;DHT22;21906;50.812;7.132;2022-08-05T14:41:45;26.30;46.10
4107;DHT22;21906;50.812;7.132;2022-08-05T14:44:11;25.70;46.80
4107;DHT22;21906;50.812;7.132;2022-08-05T14:46:37;25.30;48.50
4107;DHT22;21906;50.812;7.132;2022-08-05T14:49:04;25.40;49.20
4107;DHT22;21906;50.812;7.132;2022-08-05T14:51:29;25.40;48.10
4107;DHT22;21906;50.812;7.132;2022-08-05T14:53:55;25.60;48.10
4107;DHT22;21906;50.812;7.132;2022-08-05T14:56:21;25.70;48.10
4107;DHT22;21906;50.812;7.132;2022-08-05T14:58:47;25.50;47.90
4107;DHT22;21906;50.812;7.132;2022-08-05T15:01:12;25.40;48.40
4107;DHT22;21906;50.812;7.132;2022-08-05T15:03:38;25.30;48.70
4107;DHT22;21906;50.812;7.132;2022-08-05T15:06:05;25.00;49.00
4107;DHT22;21906;50.812;7.132;2022-08-05T15:08:30;24.90;49.20
4107;DHT22;21906;50.812;7.132;2022-08-05T15:10:56;24.80;49.30
4107;DHT22;21906;50.812;7.132;2022-08-05T15:13:22;24.70;49.50
4107;DHT22;21906;50.812;7.132;2022-08-05T15:15:47;24.80;49.90
4107;DHT22;21906;50.812;7.132;2022-08-05T15:18:13;24.90;50.20
4107;DHT22;21906;50.812;7.132;2022-08-05T15:20:39;24.90;50.90
4107;DHT22;21906;50.812;7.132;2022-08-05T15:23:11;24.50;49.30
4107;DHT22;21906;50.812;7.132;2022-08-05T15:25:38;24.30;48.70
4107;DHT22;21906;50.812;7.132;2022-08-05T15:28:07;24.10;49.30
4107;DHT22;21906;50.812;7.132;2022-08-05T15:30:33;24.00;49.20
4107;DHT22;21906;50.812;7.132;2022-08-05T15:33:04;24.10;49.20
4107;DHT22;21906;50.812;7.132;2022-08-05T15:35:30;24.20;49.00
4107;DHT22;21906;50.812;7.132;2022-08-05T15:37:56;24.00;47.10
4107;DHT22;21906;50.812;7.132;2022-08-05T15:40:23;24.10;47.60
4107;DHT22;21906;50.812;7.132;2022-08-05T15:42:48;24.20;48.70
4107;DHT22;21906;50.812;7.132;2022-08-05T15:45:14;24.20;47.40
4107;DHT22;21906;50.812;7.132;2022-08-05T15:47:42;24.30;47.00
4107;DHT22;21906;50.812;7.132;2022-08-05T15:50:09;24.30;47.10
4107;DHT22;21906;50.812;7.132;2022-08-05T15:52:36;24.20;47.20
4107;DHT22;21906;50.812;7.132;2022-08-05T15:55:07;24.10;48.60
4107;DHT22;21906;50.812;7.132;2022-08-05T15:57:34;24.00;48.50
4107;DHT22;21906;50.812;7.132;2022-08-05T16:00:01;23.90;48.50
4107;DHT22;21906;50.812;7.132;2022-08-05T16:02:26;23.90;48.40
4107;DHT22;21906;50.812;7.132;2022-08-05T16:04:52;23.90;49.30
4107;DHT22;21906;50.812;7.132;2022-08-05T16:07:18;23.80;48.90
4107;DHT22;21906;50.812;7.132;2022-08-05T16:09:46;23.70;49.60
4107;DHT22;21906;50.812;7.132;2022-08-05T16:12:13;23.60;49.10
4107;DHT22;21906;50.812;7.132;2022-08-05T16:14:39;23.70;49.70
4107;DHT22;21906;50.812;7.132;2022-08-05T16:17:05;23.80;48.20
4107;DHT22;21906;50.812;7.132;2022-08-05T16:19:31;23.60;47.50
4107;DHT22;21906;50.812;7.132;2022-08-05T16:21:56;23.70;47.80
4107;DHT22;21906;50.812;7.132;2022-08-05T16:24:22;23.70;48.10
4107;DHT22;21906;50.812;7.132;2022-08-05T16:26:52;23.70;48.20
4107;DHT22;21906;50.812;7.132;2022-08-05T16:29:19;23.90;48.10
4107;DHT22;21906;50.812;7.132;2022-08-05T16:31:45;23.90;47.70
4107;DHT22;21906;50.812;7.132;2022-08-05T16:34:11;24.00;47.50
4107;DHT22;21906;50.812;7.132;2022-08-05T16:36:37;24.20;47.40
4107;DHT22;21906;50.812;7.132;2022-08-05T16:39:02;24.20;47.30